Clackamas, OR

2:56 PM PST on January 21, 2017 (GMT -0800)
Clackamas | | Change Station

Elev 103 ft 45.43 °N, 122.57 °W | Updated 15 minutes ago

Overcast
Overcast
48.2 °F
Feels Like 46 °F
N
5.3
Wind Variable Wind from SE

Today
High -- | Low -- °F
--% Chance of Precip.
Yesterday
High -- | Low -- °F
Precip. -- in
Pressure 29.47 in
Visibility 10.0 miles
Clouds Overcast 3000 ft
Windchill 46 °F
Dew Point 44 °F
Humidity 87%
Rainfall 0.33 in
Snow Depth Not available.
7:41 AM 5:02 PM
Waning Crescent, 31% visible
METAR KTTD 212253Z 09018G25KT 10SM OVC030 05/03 A2947 RMK AO2 PK WND 09027/2217 RAE47 SLP978 P0001 T00500028
Pressure 29.47 in
Visibility 10.0 miles
Clouds Overcast 3000 ft
Windchill 46 °F
Dew Point 44 °F
Humidity 87%
Rainfall 0.33 in
Snow Depth Not available.
7:41 AM 5:02 PM
Waning Crescent, 31% visible
METAR KTTD 212253Z 09018G25KT 10SM OVC030 05/03 A2947 RMK AO2 PK WND 09027/2217 RAE47 SLP978 P0001 T00500028

Get Your Daily Forecast Email!

Thanks for signing up!

Be on the lookout for a verification email in your inbox.

You'll start receiving the daily forecast at 8 AM.

×

10-Day Weather Forecast

Almanac

Astronomy

Jan. 21, 2017 Rise Set
Actual Time
Civil Twilight
Nautical Twilight
Astronomical Twilight
Moon
Length of Visible Light
Length of Day
Tomorrow will be .
, % of the Moon is Illuminated

Today's Extremes

State Highs State Lows

Community

WunderPhotos

Upload Photos

1,962,540 photos uploaded!

WunderBlog® & News

Nearby

Air Quality

  Air Quality AQ Index Pollutant
Not available.

Snow Depth

Station Depth Elevation

Earthquake Activity

City Distance Mag. Time & Date
Minimum magnitude displayed is 2.5.

Coastal Water Temperatures

Place Temperature

Stations

Nearby Weather Stations

Station Location Temp. Windchill Dew Point Humidity Wind Precip. Elev Updated Type
                   

Watches & Warnings

Small Craft for Rough Bar Advisory
Issued: 2:24 PM PST Jan. 21, 2017 – National Weather Service

... Small Craft Advisory for rough bar remains in effect until
3 PM PST Sunday...

* in the Main Channel...

* general seas... 19 feet Saturday afternoon... subsiding to 16
feet late Saturday night through Sunday.

* First Ebb... seas temporarily building to 21 feet with
breakers during the Ebb around 1215 am Sunday.

* Second Ebb... seas temporarily building to 17 feet with breakers
during the Ebb around 1 PM Sunday.

Precautionary/preparedness actions...

A Small Craft Advisory for rough bar means that wave conditions
are expected to be hazardous to small craft in or near Harbor
entrances.